Time;durP1;ratioP1;P1;durP2;ratioP2;P2;SDS_P1;SDS_P2;PMS_P1;PMS_P2;Temp;Humidity;BMP_temperature;BMP_pressure;BME280_temperature;BME280_humidity;BME280_pressure;Samples;Min_cycle;Max_cycle;Signal;HPM_P1;HPM_P2
2023/05/13 00:01:37;;;;;;;10.48;9.35;;;16.20;88.30;;;;;;5056437;28;20305;-73
2023/05/13 00:04:07;;;;;;;11.35;10.15;;;16.20;89.50;;;;;;5072876;28;20053;-74
2023/05/13 00:06:34;;;;;;;11.07;9.98;;;16.10;89.70;;;;;;5057052;28;20029;-74
2023/05/13 00:09:00;;;;;;;11.00;9.98;;;16.20;89.50;;;;;;5057096;28;20376;-74
2023/05/13 00:11:26;;;;;;;11.55;10.45;;;16.20;89.30;;;;;;5056845;28;20055;-74
2023/05/13 00:13:52;;;;;;;12.60;10.68;;;16.20;90.10;;;;;;5072548;28;20068;-74
2023/05/13 00:16:18;;;;;;;11.30;10.20;;;16.10;90.40;;;;;;5056695;28;20415;-73
2023/05/13 00:18:44;;;;;;;11.77;10.57;;;16.10;90.40;;;;;;5056893;28;20029;-74
2023/05/13 00:21:09;;;;;;;12.00;10.80;;;16.00;91.40;;;;;;5072856;28;20037;-74
2023/05/13 00:23:35;;;;;;;12.38;11.20;;;15.90;91.90;;;;;;5072644;28;20037;-75
2023/05/13 00:26:01;;;;;;;11.82;10.38;;;15.90;92.60;;;;;;5039469;28;20389;-73
2023/05/13 00:28:27;;;;;;;11.93;10.82;;;15.90;92.00;;;;;;5039400;28;20486;-74
2023/05/13 00:30:53;;;;;;;12.13;11.02;;;15.80;92.50;;;;;;5056090;28;20355;-74
2023/05/13 00:33:18;;;;;;;12.82;11.55;;;15.70;92.90;;;;;;5039370;28;20040;-74
2023/05/13 00:35:44;;;;;;;12.20;10.95;;;15.60;93.40;;;;;;5023003;28;20033;-73
2023/05/13 00:38:10;;;;;;;13.15;10.73;;;15.60;93.50;;;;;;5056680;28;20029;-74
2023/05/13 00:40:38;;;;;;;11.70;10.48;;;15.60;93.50;;;;;;5055940;28;20069;-74
2023/05/13 00:43:05;;;;;;;12.85;11.35;;;15.50;93.40;;;;;;5056160;28;20029;-73
2023/05/13 00:45:30;;;;;;;11.65;10.52;;;15.60;93.60;;;;;;5076177;28;20034;-74
2023/05/13 00:47:57;;;;;;;13.00;10.98;;;15.60;92.30;;;;;;5026858;28;20040;-74
2023/05/13 00:50:24;;;;;;;12.73;10.88;;;15.50;92.30;;;;;;5059927;28;20078;-73
2023/05/13 00:52:50;;;;;;;12.18;10.98;;;15.50;91.60;;;;;;5059576;28;20115;-73
2023/05/13 00:55:16;;;;;;;12.32;11.02;;;15.60;90.80;;;;;;5060371;28;20029;-72
2023/05/13 00:57:42;;;;;;;12.43;10.60;;;15.50;90.70;;;;;;5060291;28;20029;-73
2023/05/13 01:00:09;;;;;;;11.75;10.65;;;15.50;90.70;;;;;;5043417;28;20103;-74
2023/05/13 01:02:41;;;;;;;11.85;10.75;;;15.50;90.30;;;;;;5076270;28;20041;-74
2023/05/13 01:05:26;;;;;;;11.60;10.38;;;15.50;90.80;;;;;;5076177;28;20281;-75
2023/05/13 01:08:09;;;;;;;12.23;10.88;;;15.40;90.90;;;;;;5060505;28;20428;-74
2023/05/13 01:10:50;;;;;;;;;;;15.50;90.80;;;;;;5076597;28;20032;-75
2023/05/13 01:13:23;;;;;;;12.57;11.38;;;15.60;90.10;;;;;;5059425;28;19920;-73
2023/05/13 01:16:24;;;;;;;12.43;11.00;;;15.60;84.70;;;;;;5076154;28;20029;-74
2023/05/13 01:18:57;;;;;;;11.80;10.57;;;15.60;84.30;;;;;;5016103;28;20037;-72
2023/05/13 01:21:25;;;;;;;12.25;10.85;;;15.60;84.90;;;;;;5075959;28;20111;-75
2023/05/13 01:23:51;;;;;;;10.95;9.95;;;15.70;84.00;;;;;;5075692;28;20056;-72
2023/05/13 01:26:18;;;;;;;11.75;10.55;;;15.70;81.60;;;;;;5042577;28;20032;-72
2023/05/13 01:28:44;;;;;;;11.32;10.13;;;15.70;80.40;;;;;;5075635;28;20025;-72
2023/05/13 01:31:12;;;;;;;12.13;10.93;;;15.80;78.90;;;;;;5058958;28;20078;-72
2023/05/13 01:33:39;;;;;;;14.00;10.07;;;15.80;79.20;;;;;;5075593;28;20057;-73
2023/05/13 01:36:07;;;;;;;12.45;11.15;;;15.70;77.80;;;;;;5058899;28;20044;-73
2023/05/13 01:38:35;;;;;;;11.38;10.32;;;15.80;79.20;;;;;;5058805;28;20124;-72
2023/05/13 01:41:02;;;;;;;11.73;10.43;;;15.70;81.20;;;;;;5058868;28;20040;-73
2023/05/13 01:43:29;;;;;;;11.93;9.45;;;15.70;79.60;;;;;;5075345;28;20120;-73
2023/05/13 01:45:59;;;;;;;11.32;10.23;;;15.70;81.30;;;;;;5075421;28;20048;-73
2023/05/13 01:48:25;;;;;;;11.02;10.00;;;15.70;81.90;;;;;;5075339;28;20051;-72
2023/05/13 01:50:55;;;;;;;11.63;10.52;;;15.60;84.60;;;;;;5059425;28;20036;-74
2023/05/13 01:53:22;;;;;;;11.32;10.20;;;15.60;84.60;;;;;;5058951;28;20047;-72
2023/05/13 01:55:51;;;;;;;10.93;9.82;;;15.60;84.00;;;;;;5073469;28;20392;-74
2023/05/13 01:58:17;;;;;;;11.32;10.15;;;15.60;79.20;;;;;;5075274;28;20099;-73
2023/05/13 02:00:42;;;;;;;11.50;9.70;;;15.60;78.60;;;;;;5075202;28;20036;-73
2023/05/13 02:03:08;;;;;;;12.45;9.88;;;15.60;77.00;;;;;;5075098;28;20044;-74
2023/05/13 02:05:35;;;;;;;11.07;9.98;;;15.70;76.20;;;;;;5074942;28;20053;-73
2023/05/13 02:08:05;;;;;;;10.30;9.30;;;15.60;72.90;;;;;;5074938;28;20049;-72
2023/05/13 02:10:31;;;;;;;11.38;9.57;;;15.60;75.90;;;;;;5074967;28;20365;-73
2023/05/13 02:12:59;;;;;;;12.30;9.65;;;15.50;77.00;;;;;;5074795;28;20412;-73
2023/05/13 02:15:25;;;;;;;10.60;9.60;;;15.60;76.00;;;;;;5074987;28;20056;-74
2023/05/13 02:17:50;;;;;;;10.50;9.55;;;15.60;75.20;;;;;;5074804;28;20435;-73
2023/05/13 02:20:16;;;;;;;10.90;9.38;;;15.70;73.10;;;;;;5074893;28;20033;-73
2023/05/13 02:22:42;;;;;;;10.68;9.68;;;15.70;71.20;;;;;;5058058;28;20051;-73
2023/05/13 02:25:08;;;;;;;11.63;9.25;;;15.70;65.10;;;;;;5074754;28;20036;-74
2023/05/13 02:27:36;;;;;;;10.98;9.35;;;15.70;56.30;;;;;;5058142;28;20139;-74
2023/05/13 02:30:02;;;;;;;9.13;8.23;;;15.60;62.40;;;;;;5058077;28;20033;-74
2023/05/13 02:32:27;;;;;;;10.52;8.80;;;15.60;60.80;;;;;;5057870;28;20044;-73
2023/05/13 02:34:53;;;;;;;9.20;8.30;;;15.60;60.00;;;;;;5057983;28;20032;-73
2023/05/13 02:37:20;;;;;;;10.23;8.32;;;15.50;63.70;;;;;;5058042;28;20029;-72
2023/05/13 02:39:54;;;;;;;9.68;8.88;;;15.60;61.10;;;;;;5059321;28;20355;-74
2023/05/13 02:42:20;;;;;;;9.02;8.13;;;15.50;57.00;;;;;;5058290;28;20033;-73
2023/05/13 02:44:47;;;;;;;8.50;7.47;;;15.50;55.10;;;;;;5057742;28;20153;-73
2023/05/13 02:47:14;;;;;;;8.10;7.30;;;15.50;48.30;;;;;;5074202;28;20059;-73
2023/05/13 02:49:40;;;;;;;8.00;7.18;;;15.50;47.20;;;;;;5057632;28;20033;-74
2023/05/13 02:52:06;;;;;;;7.63;7.03;;;15.50;46.60;;;;;;5074080;28;20039;-72
2023/05/13 02:54:34;;;;;;;7.85;7.13;;;15.50;42.80;;;;;;5073921;28;20068;-73
2023/05/13 02:57:00;;;;;;;7.65;6.95;;;15.50;43.10;;;;;;5057665;28;20021;-73
2023/05/13 02:59:26;;;;;;;9.43;6.70;;;15.40;39.10;;;;;;5074015;28;20041;-73
2023/05/13 03:01:52;;;;;;;7.13;6.32;;;15.50;36.50;;;;;;5074217;28;20052;-72
2023/05/13 03:04:17;;;;;;;7.22;6.63;;;15.40;38.70;;;;;;5057427;28;20060;-73
2023/05/13 03:06:43;;;;;;;7.55;6.85;;;15.40;36.50;;;;;;5056821;28;20090;-73
2023/05/13 03:09:09;;;;;;;7.20;6.50;;;15.30;38.60;;;;;;5057834;28;20044;-73
2023/05/13 03:11:38;;;;;;;8.05;6.45;;;15.30;37.00;;;;;;5057225;28;20033;-72
2023/05/13 03:14:04;;;;;;;7.38;6.63;;;15.30;33.10;;;;;;5057326;28;20108;-73
2023/05/13 03:16:30;;;;;;;6.80;6.20;;;15.30;35.90;;;;;;5057776;28;20398;-73
2023/05/13 03:18:56;;;;;;;9.38;6.28;;;15.20;35.80;;;;;;5056975;28;20051;-72
2023/05/13 03:21:22;;;;;;;7.15;6.22;;;15.10;39.30;;;;;;5040697;28;20319;-73
2023/05/13 03:23:48;;;;;;;7.10;6.47;;;15.10;37.80;;;;;;5056976;28;20064;-73
2023/05/13 03:26:15;;;;;;;9.55;6.85;;;15.10;34.70;;;;;;5073812;28;20029;-72
2023/05/13 03:28:41;;;;;;;7.38;6.78;;;15.00;38.90;;;;;;5057082;28;20115;-72
2023/05/13 03:31:07;;;;;;;9.20;8.32;;;15.00;38.10;;;;;;5040169;28;20381;-74
2023/05/13 03:33:36;;;;;;;10.55;8.38;;;14.90;40.60;;;;;;5072459;28;20409;-73
2023/05/13 03:36:03;;;;;;;9.93;7.22;;;14.90;41.50;;;;;;5073549;28;20029;-75
2023/05/13 03:38:30;;;;;;;8.20;7.43;;;14.80;42.20;;;;;;5057315;28;20063;-75
2023/05/13 03:40:56;;;;;;;8.25;7.25;;;14.80;43.80;;;;;;5073311;28;20053;-74
2023/05/13 03:43:22;;;;;;;8.30;7.50;;;14.80;44.90;;;;;;5073480;28;20021;-74
2023/05/13 03:45:53;;;;;;;7.85;6.97;;;14.80;43.10;;;;;;5073415;28;20040;-74
2023/05/13 03:48:21;;;;;;;8.50;6.78;;;14.70;43.30;;;;;;5040386;28;20135;-74
2023/05/13 03:50:47;;;;;;;7.53;6.82;;;14.60;47.10;;;;;;5056673;28;20094;-75
2023/05/13 03:53:16;;;;;;;8.35;7.22;;;14.60;46.20;;;;;;5072952;28;20316;-74
2023/05/13 03:55:44;;;;;;;8.70;6.63;;;14.60;44.60;;;;;;5056459;28;20036;-74
2023/05/13 03:58:15;;;;;;;7.82;7.05;;;14.60;41.90;;;;;;5056174;28;20078;-74
2023/05/13 04:00:45;;;;;;;7.43;6.78;;;14.60;44.10;;;;;;5072577;28;20061;-75
2023/05/13 04:03:11;;;;;;;9.23;6.88;;;14.60;42.50;;;;;;5072727;28;20025;-75
2023/05/13 04:05:37;;;;;;;7.97;7.18;;;14.60;43.50;;;;;;5056200;28;20040;-75
2023/05/13 04:08:03;;;;;;;7.78;6.90;;;14.60;40.80;;;;;;5023150;28;20124;-75
2023/05/13 04:10:28;;;;;;;8.35;7.18;;;14.60;41.40;;;;;;5055806;28;20033;-75
2023/05/13 04:12:54;;;;;;;8.80;6.35;;;14.60;45.60;;;;;;5072756;28;20387;-75
2023/05/13 04:15:20;;;;;;;7.05;6.38;;;14.50;47.50;;;;;;5039734;28;20087;-75
2023/05/13 04:17:46;;;;;;;8.02;7.22;;;14.40;51.60;;;;;;5055723;28;20306;-75
2023/05/13 04:20:12;;;;;;;7.38;6.68;;;14.40;50.10;;;;;;5072248;28;20043;-75
2023/05/13 04:22:38;;;;;;;9.40;6.35;;;14.40;51.20;;;;;;5072852;28;20040;-73
2023/05/13 04:25:04;;;;;;;7.32;6.63;;;14.40;49.80;;;;;;5056930;28;20040;-75
2023/05/13 04:27:30;;;;;;;7.45;6.72;;;14.50;47.50;;;;;;5056861;28;20035;-75
2023/05/13 04:30:02;;;;;;;;;;;14.50;45.20;;;;;;5056717;28;20127;-75
2023/05/13 04:32:31;;;;;;;8.25;6.20;;;14.60;39.50;;;;;;5055980;28;19917;-74
2023/05/13 04:34:57;;;;;;;6.43;5.82;;;14.60;29.70;;;;;;5056873;28;20040;-77
2023/05/13 04:37:26;;;;;;;6.60;5.97;;;14.70;24.90;;;;;;5072909;28;20112;-75
2023/05/13 04:39:55;;;;;;;7.82;5.55;;;14.70;22.90;;;;;;5039959;28;20029;-76
2023/05/13 04:42:23;;;;;;;5.93;5.32;;;14.70;24.70;;;;;;5072814;28;20033;-73
2023/05/13 04:44:48;;;;;;;8.18;5.25;;;14.80;16.20;;;;;;5072843;28;20400;-76
2023/05/13 04:47:15;;;;;;;6.07;5.40;;;14.90;9.80;;;;;;5072667;28;20059;-75
2023/05/13 04:49:41;;;;;;;6.57;5.22;;;14.90;7.10;;;;;;5056136;28;20033;-76
2023/05/13 04:52:07;;;;;;;5.88;5.38;;;15.00;6.10;;;;;;5055863;28;20078;-76
2023/05/13 04:54:34;;;;;;;5.38;4.88;;;15.00;1.00;;;;;;5072560;28;20292;-76
2023/05/13 04:57:01;;;;;;;6.03;5.10;;;15.10;1.00;;;;;;5072490;28;20029;-76
2023/05/13 04:59:29;;;;;;;6.35;5.32;;;15.20;1.00;;;;;;5072569;28;20182;-76
2023/05/13 05:01:55;;;;;;;7.38;5.32;;;15.10;1.00;;;;;;5057220;28;20057;-74
2023/05/13 05:04:21;;;;;;;5.95;5.40;;;15.20;2.00;;;;;;5072506;28;20064;-75
2023/05/13 05:06:47;;;;;;;12.65;5.70;;;15.30;1.00;;;;;;5055894;28;20029;-68
2023/05/13 05:09:15;;;;;;;9.38;5.45;;;15.30;3.40;;;;;;5072738;28;20078;-77
2023/05/13 05:11:40;;;;;;;6.68;5.70;;;15.30;6.40;;;;;;5056532;28;20029;-77
2023/05/13 05:14:06;;;;;;;7.13;6.03;;;15.30;6.60;;;;;;5072365;28;20365;-78
2023/05/13 05:16:32;;;;;;;6.57;5.75;;;15.40;8.70;;;;;;5072540;28;20111;-75
2023/05/13 05:19:00;;;;;;;7.43;6.47;;;15.50;6.50;;;;;;5072530;28;20102;-77
2023/05/13 05:21:26;;;;;;;7.80;6.50;;;15.50;12.00;;;;;;5072398;28;20045;-76
2023/05/13 05:23:53;;;;;;;7.88;6.20;;;15.60;9.40;;;;;;5072116;28;20037;-77
2023/05/13 05:26:19;;;;;;;7.63;5.93;;;15.60;11.60;;;;;;5072431;28;20359;-77
2023/05/13 05:28:46;;;;;;;6.43;5.68;;;15.70;14.00;;;;;;5022856;28;20448;-77
2023/05/13 05:31:13;;;;;;;7.13;6.50;;;15.70;14.60;;;;;;5058524;28;20303;-74
2023/05/13 05:33:39;;;;;;;8.43;5.60;;;15.80;13.50;;;;;;5042818;28;20057;-78
2023/05/13 05:36:06;;;;;;;9.23;6.13;;;15.90;9.30;;;;;;5075901;28;20045;-74
2023/05/13 05:38:32;;;;;;;6.90;6.25;;;15.90;9.70;;;;;;5059439;28;20415;-77
2023/05/13 05:40:59;;;;;;;6.57;5.93;;;16.00;7.00;;;;;;5075861;28;20032;-77
2023/05/13 05:43:26;;;;;;;7.00;5.78;;;15.90;11.00;;;;;;5042768;28;20029;-78
2023/05/13 05:45:51;;;;;;;11.32;7.35;;;15.90;7.70;;;;;;5059952;28;20285;-70
2023/05/13 05:48:18;;;;;;;7.55;6.43;;;15.90;9.40;;;;;;5075883;28;20094;-76
2023/05/13 05:50:45;;;;;;;7.70;6.93;;;15.80;9.70;;;;;;5026241;28;20036;-73
2023/05/13 05:53:14;;;;;;;13.00;7.05;;;15.80;12.90;;;;;;5059642;28;20116;-71
2023/05/13 05:55:41;;;;;;;13.07;6.70;;;15.80;12.10;;;;;;5075487;28;20349;-73
2023/05/13 05:58:09;;;;;;;7.90;6.82;;;15.90;10.60;;;;;;5058867;28;20107;-75
2023/05/13 06:00:36;;;;;;;7.45;6.75;;;15.90;11.60;;;;;;5075590;28;20053;-75
2023/05/13 06:03:02;;;;;;;6.90;6.32;;;15.90;15.20;;;;;;5059093;28;20122;-76
2023/05/13 06:05:28;;;;;;;8.10;7.30;;;15.90;17.50;;;;;;5075241;28;20057;-76
2023/05/13 06:07:54;;;;;;;7.90;6.72;;;16.10;15.80;;;;;;5075444;28;20102;-71
2023/05/13 06:10:20;;;;;;;9.55;7.13;;;16.10;6.00;;;;;;5075453;28;20073;-72
2023/05/13 06:12:46;;;;;;;9.77;6.85;;;16.30;3.10;;;;;;5025759;28;20037;-76
2023/05/13 06:15:12;;;;;;;7.72;6.93;;;16.30;3.00;;;;;;5042577;28;20040;-74
2023/05/13 06:17:38;;;;;;;10.88;7.57;;;16.20;7.20;;;;;;5059103;28;20087;-70
2023/05/13 06:20:06;;;;;;;7.47;6.78;;;16.30;2.80;;;;;;5075424;28;20539;-76
2023/05/13 06:22:32;;;;;;;10.35;6.65;;;16.30;3.50;;;;;;5059282;28;20305;-77
2023/05/13 06:24:58;;;;;;;11.20;7.13;;;16.30;10.20;;;;;;5074971;28;20312;-72
2023/05/13 06:27:24;;;;;;;9.32;6.03;;;16.50;1.00;;;;;;5074800;28;20037;-73
2023/05/13 06:29:50;;;;;;;9.30;7.07;;;16.50;1.00;;;;;;5058341;28;20033;-67
2023/05/13 06:32:16;;;;;;;8.80;6.18;;;16.50;1.00;;;;;;5074710;28;20044;-75
2023/05/13 06:34:45;;;;;;;7.20;6.50;;;16.50;2.80;;;;;;5058249;28;20029;-71
2023/05/13 06:37:12;;;;;;;9.90;6.93;;;16.50;6.10;;;;;;5074393;28;20037;-71
2023/05/13 06:39:39;;;;;;;8.15;7.18;;;16.50;1.00;;;;;;5057895;28;20301;-70
2023/05/13 06:42:05;;;;;;;9.07;6.57;;;16.70;1.00;;;;;;5073663;28;20025;-76
2023/05/13 06:44:34;;;;;;;7.85;6.30;;;16.70;1.00;;;;;;5074065;28;20040;-70
2023/05/13 06:47:04;;;;;;;7.95;6.85;;;16.80;1.00;;;;;;5074188;28;20114;-72
2023/05/13 06:49:32;;;;;;;8.82;6.55;;;17.00;1.00;;;;;;5058469;28;20071;-72
2023/05/13 06:51:58;;;;;;;11.25;7.88;;;17.00;1.00;;;;;;5058153;28;20044;-73
2023/05/13 06:54:25;;;;;;;10.75;8.35;;;17.00;1.00;;;;;;5074558;28;20029;-73
2023/05/13 06:56:52;;;;;;;10.93;9.40;;;17.00;1.00;;;;;;5041149;28;20029;-73
2023/05/13 06:59:19;;;;;;;13.80;9.98;;;17.10;1.00;;;;;;5074099;28;20037;-73
2023/05/13 07:01:45;;;;;;;13.23;9.23;;;17.00;1.00;;;;;;5058268;28;20039;-71
2023/05/13 07:04:11;;;;;;;10.55;8.23;;;17.00;1.00;;;;;;5073910;28;20424;-74
2023/05/13 07:06:37;;;;;;;10.38;7.38;;;17.20;1.00;;;;;;5074429;28;20301;-75
2023/05/13 07:09:02;;;;;;;7.47;6.72;;;17.20;1.00;;;;;;5057436;28;20047;-78
2023/05/13 07:11:28;;;;;;;9.45;7.07;;;17.40;1.00;;;;;;5074150;28;20032;-70
2023/05/13 07:13:54;;;;;;;8.30;6.93;;;17.40;1.00;;;;;;5040906;28;20104;-73
2023/05/13 07:16:20;;;;;;;9.20;6.90;;;17.50;1.00;;;;;;5073894;28;20029;-73
2023/05/13 07:18:46;;;;;;;7.78;6.45;;;17.60;1.00;;;;;;5057153;28;20090;-74
2023/05/13 07:21:14;;;;;;;9.52;6.63;;;17.80;1.00;;;;;;5073783;28;20082;-72
2023/05/13 07:23:40;;;;;;;7.75;7.05;;;18.00;1.00;;;;;;5073914;28;20025;-75
2023/05/13 07:26:06;;;;;;;9.48;7.57;;;18.20;1.00;;;;;;5057684;28;20029;-76
2023/05/13 07:28:32;;;;;;;7.80;7.10;;;18.20;1.00;;;;;;5073564;28;20025;-76
2023/05/13 07:30:57;;;;;;;7.63;6.82;;;18.40;1.00;;;;;;5056901;28;20121;-74
2023/05/13 07:33:23;;;;;;;9.40;7.68;;;18.40;1.00;;;;;;5057656;28;20401;-77
2023/05/13 07:35:49;;;;;;;9.80;7.47;;;18.60;1.00;;;;;;5057542;28;20067;-76
2023/05/13 07:38:15;;;;;;;9.20;7.28;;;18.80;1.00;;;;;;5056779;28;20073;-73
2023/05/13 07:40:41;;;;;;;8.15;6.93;;;18.70;1.00;;;;;;5073054;28;20025;-76
2023/05/13 07:43:07;;;;;;;9.10;7.38;;;18.90;1.00;;;;;;5073081;28;20037;-74
2023/05/13 07:45:33;;;;;;;9.55;7.45;;;19.00;1.00;;;;;;5056547;28;20396;-73
2023/05/13 07:47:59;;;;;;;8.15;7.30;;;19.00;1.00;;;;;;5073544;28;20037;-74
2023/05/13 07:50:24;;;;;;;7.55;6.82;;;19.00;1.00;;;;;;5056400;28;20045;-71
2023/05/13 07:52:50;;;;;;;8.07;7.28;;;19.00;1.00;;;;;;5039689;28;20278;-73
2023/05/13 07:55:17;;;;;;;8.23;7.32;;;18.70;1.00;;;;;;5056988;28;20021;-75
2023/05/13 07:57:43;;;;;;;7.60;6.90;;;18.60;1.00;;;;;;5057331;28;20040;-75
2023/05/13 08:00:09;;;;;;;8.38;7.55;;;18.40;1.00;;;;;;5056433;28;20365;-73
2023/05/13 08:02:40;;;;;;;8.57;7.47;;;18.40;1.00;;;;;;5057337;28;20045;-71
2023/05/13 08:05:06;;;;;;;8.10;7.35;;;18.40;1.00;;;;;;5056990;28;20052;-74
2023/05/13 08:07:32;;;;;;;11.18;7.75;;;18.40;1.00;;;;;;5058065;28;20037;-73
2023/05/13 08:09:58;;;;;;;8.63;7.70;;;18.40;1.00;;;;;;5056286;28;20273;-69
2023/05/13 08:12:26;;;;;;;8.18;7.35;;;18.50;1.00;;;;;;5057321;28;20037;-72
2023/05/13 08:14:52;;;;;;;8.27;7.47;;;18.50;1.00;;;;;;5057003;28;20416;-73
2023/05/13 08:17:18;;;;;;;8.95;7.13;;;18.50;1.00;;;;;;5072901;28;20040;-70
2023/05/13 08:19:44;;;;;;;8.77;7.32;;;18.60;1.00;;;;;;5056969;28;20037;-70
2023/05/13 08:22:11;;;;;;;10.77;8.43;;;18.80;1.00;;;;;;5056742;28;20475;-71
2023/05/13 08:24:39;;;;;;;12.20;8.73;;;19.00;1.00;;;;;;5056692;28;20033;-70
2023/05/13 08:27:05;;;;;;;8.30;7.47;;;19.20;1.00;;;;;;5073054;28;20040;-69
2023/05/13 08:29:30;;;;;;;8.40;7.70;;;19.30;1.00;;;;;;5057307;28;20037;-73
2023/05/13 08:31:56;;;;;;;9.00;7.28;;;19.50;1.00;;;;;;5056641;28;20044;-71
2023/05/13 08:34:22;;;;;;;8.93;7.50;;;19.50;1.00;;;;;;5056134;28;20033;-73
2023/05/13 08:36:48;;;;;;;10.38;7.55;;;19.50;1.00;;;;;;5073193;28;20033;-71
2023/05/13 08:39:14;;;;;;;10.57;7.68;;;19.60;1.00;;;;;;5023529;28;20039;-71
2023/05/13 08:41:41;;;;;;;10.00;7.80;;;19.60;1.00;;;;;;5056613;28;20021;-72
2023/05/13 08:44:11;;;;;;;11.45;7.35;;;19.40;1.00;;;;;;5056937;28;20037;-69
2023/05/13 08:46:40;;;;;;;8.13;7.40;;;19.60;1.00;;;;;;5072962;28;20044;-73
2023/05/13 08:49:08;;;;;;;7.95;6.32;;;19.70;1.00;;;;;;5073116;28;20029;-73
2023/05/13 08:51:34;;;;;;;9.02;6.75;;;19.60;1.00;;;;;;5056233;28;20029;-71
2023/05/13 08:54:01;;;;;;;8.00;7.30;;;19.70;1.00;;;;;;5057190;28;20106;-71
2023/05/13 08:56:28;;;;;;;7.93;7.07;;;19.80;1.00;;;;;;5073274;28;20032;-72
2023/05/13 08:58:55;;;;;;;7.65;6.75;;;19.80;1.00;;;;;;5056728;28;20293;-70
2023/05/13 09:01:22;;;;;;;7.25;6.00;;;20.00;1.00;;;;;;5056550;28;20021;-72
2023/05/13 09:03:58;;;;;;;9.82;6.38;;;20.10;1.00;;;;;;5056746;28;20094;-72
2023/05/13 09:06:24;;;;;;;10.27;6.40;;;20.10;1.00;;;;;;5060617;28;20029;-72
2023/05/13 09:08:50;;;;;;;9.10;6.85;;;20.20;1.00;;;;;;5060932;28;20036;-72
2023/05/13 09:11:16;;;;;;;7.13;5.95;;;20.30;1.00;;;;;;5060541;28;20044;-70
2023/05/13 09:13:43;;;;;;;7.15;6.25;;;20.40;1.00;;;;;;5060122;28;20055;-69
2023/05/13 09:16:11;;;;;;;8.57;6.78;;;20.50;1.00;;;;;;5060934;28;20124;-69
2023/05/13 09:18:38;;;;;;;7.18;6.57;;;20.50;1.00;;;;;;5076772;28;20021;-73
2023/05/13 09:21:25;;;;;;;7.75;6.95;;;20.60;1.00;;;;;;5076866;28;20029;-72
2023/05/13 09:24:01;;;;;;;8.38;6.40;;;20.60;1.00;;;;;;5060316;28;20277;-72
2023/05/13 09:26:28;;;;;;;8.65;6.57;;;20.70;1.00;;;;;;5076531;28;20036;-74
2023/05/13 09:29:13;;;;;;;13.38;7.20;;;20.80;1.00;;;;;;5060972;28;20099;-72
2023/05/13 09:31:39;;;;;;;8.02;6.20;;;20.60;1.00;;;;;;5059608;28;20037;-73
2023/05/13 09:34:06;;;;;;;8.18;5.78;;;20.60;1.00;;;;;;5076382;28;20021;-72
2023/05/13 09:36:32;;;;;;;6.28;5.53;;;20.70;1.00;;;;;;5059817;28;20379;-72
2023/05/13 09:38:58;;;;;;;7.65;6.50;;;20.90;1.00;;;;;;5059491;28;20039;-73
2023/05/13 09:41:30;;;;;;;11.32;6.05;;;21.00;1.00;;;;;;5042946;28;20056;-73
2023/05/13 09:43:57;;;;;;;10.18;7.13;;;21.00;1.00;;;;;;5059139;28;20108;-72
2023/05/13 09:46:24;;;;;;;10.35;6.13;;;21.10;1.00;;;;;;5075892;28;20339;-72
2023/05/13 09:48:54;;;;;;;8.35;6.25;;;21.10;1.00;;;;;;5058972;28;20047;-71
2023/05/13 09:51:30;;;;;;;10.38;6.25;;;21.30;1.00;;;;;;5075818;28;20444;-73
2023/05/13 09:54:05;;;;;;;8.65;6.75;;;21.40;1.00;;;;;;5059699;28;20025;-71
2023/05/13 09:56:35;;;;;;;9.07;6.20;;;21.60;1.00;;;;;;5075274;28;20359;-73
2023/05/13 09:59:02;;;;;;;8.23;7.03;;;21.50;1.00;;;;;;5060723;28;20033;-70
2023/05/13 10:01:29;;;;;;;8.38;6.18;;;21.40;1.00;;;;;;5059299;28;20060;-71
2023/05/13 10:03:57;;;;;;;6.65;5.57;;;21.50;1.00;;;;;;5074969;28;20045;-72
2023/05/13 10:06:25;;;;;;;8.80;5.88;;;21.70;1.00;;;;;;5059497;28;20041;-72
2023/05/13 10:08:52;;;;;;;6.65;5.95;;;21.90;1.00;;;;;;5075529;28;20036;-71
2023/05/13 10:11:18;;;;;;;6.35;5.70;;;21.90;99.90;;;;;;5075254;28;20033;-69
2023/05/13 10:13:51;;;;;;;9.63;6.00;;;22.00;99.90;;;;;;5059660;28;20065;-72
2023/05/13 10:16:18;;;;;;;7.18;5.38;;;22.20;99.90;;;;;;5074272;28;20025;-73
2023/05/13 10:18:44;;;;;;;7.68;6.47;;;22.30;99.90;;;;;;5059955;28;20040;-74
2023/05/13 10:21:11;;;;;;;7.30;6.00;;;22.20;1.00;;;;;;5059096;28;20262;-71
2023/05/13 10:23:38;;;;;;;8.35;6.13;;;22.10;99.90;;;;;;5059465;28;20027;-70
2023/05/13 10:26:06;;;;;;;7.50;6.63;;;22.30;99.90;;;;;;5058606;28;20175;-73
2023/05/13 10:28:33;;;;;;;8.00;5.28;;;22.40;99.90;;;;;;5059142;28;20033;-70
2023/05/13 10:30:58;;;;;;;5.78;4.82;;;22.40;99.90;;;;;;5058897;28;20025;-72
2023/05/13 10:33:26;;;;;;;5.95;5.10;;;22.70;99.90;;;;;;5058143;28;20043;-70
2023/05/13 10:36:18;;;;;;;8.40;6.50;;;23.10;55.20;;;;;;5058698;28;20036;-68
2023/05/13 10:38:59;;;;;;;6.60;5.18;;;23.20;1.00;;;;;;5058382;28;20077;-69
2023/05/13 10:42:29;;;;;;;5.88;5.10;;;23.40;1.00;;;;;;5058693;28;20047;-69
2023/05/13 10:44:57;;;;;;;6.55;5.32;;;23.60;1.00;;;;;;4978914;28;20027;-69
2023/05/13 10:47:23;;;;;;;6.40;4.63;;;23.70;1.00;;;;;;4978453;28;20387;-70
2023/05/13 10:49:53;;;;;;;5.13;4.50;;;23.80;99.90;;;;;;5017485;28;20033;-70
2023/05/13 10:52:19;;;;;;;6.25;4.85;;;23.90;1.00;;;;;;5057440;28;20074;-70
2023/05/13 10:55:01;;;;;;;6.38;4.75;;;24.20;99.90;;;;;;5058627;28;20041;-69
2023/05/13 10:57:36;;;;;;;7.80;5.05;;;25.50;1.00;;;;;;5074457;28;20025;-71
2023/05/13 11:00:13;;;;;;;6.20;4.90;;;27.00;1.00;;;;;;5074905;28;20021;-73
2023/05/13 11:02:39;;;;;;;5.53;5.03;;;27.20;99.90;;;;;;5057794;28;20296;-65
2023/05/13 11:05:05;;;;;;;5.35;4.38;;;28.10;1.00;;;;;;5057455;28;20049;-68
2023/05/13 11:07:30;;;;;;;6.68;4.60;;;29.50;1.00;;;;;;5058704;28;20036;-67
2023/05/13 11:09:58;;;;;;;5.40;4.53;;;30.10;1.00;;;;;;5074018;28;20033;-70
2023/05/13 11:12:24;;;;;;;6.72;4.60;;;31.20;99.90;;;;;;5074355;28;20091;-70
2023/05/13 11:14:54;;;;;;;7.35;4.30;;;32.00;47.60;;;;;;5073970;28;20037;-72
2023/05/13 11:17:20;;;;;;;5.28;4.05;;;32.10;1.00;;;;;;5057213;28;20108;-69
2023/05/13 11:19:49;;;;;;;4.47;4.07;;;32.00;1.00;;;;;;5057116;28;20124;-70
2023/05/13 11:22:19;;;;;;;5.15;4.63;;;32.80;1.00;;;;;;5073840;28;20028;-73
2023/05/13 11:25:02;;;;;;;6.95;4.20;;;33.10;1.00;;;;;;5057973;28;20017;-70
2023/05/13 11:27:36;;;;;;;5.75;4.68;;;32.90;99.90;;;;;;5057591;28;20355;-69
2023/05/13 11:30:05;;;;;;;6.70;4.15;;;33.30;99.90;;;;;;5058196;28;20112;-73
2023/05/13 11:32:52;;;;;;;5.50;4.30;;;34.00;99.90;;;;;;5057721;28;20400;-70
2023/05/13 11:35:20;;;;;;;3.92;3.53;;;34.20;99.90;;;;;;5074148;28;20103;-72
2023/05/13 11:37:48;;;;;;;3.95;3.45;;;34.60;99.90;;;;;;5057367;28;20087;-69
2023/05/13 11:40:28;;;;;;;6.10;2.92;;;34.60;99.90;;;;;;5057495;28;20079;-73
2023/05/13 11:42:54;;;;;;;4.97;3.65;;;35.00;99.90;;;;;;5057547;28;20041;-69
2023/05/13 11:45:22;;;;;;;5.30;3.63;;;34.90;81.30;;;;;;5073268;28;20039;-74
2023/05/13 11:47:49;;;;;;;5.97;3.17;;;33.70;33.60;;;;;;5056752;28;20124;-69
2023/05/13 11:50:29;;;;;;;3.58;3.10;;;33.50;1.00;;;;;;5073477;28;20033;-72
2023/05/13 11:52:58;;;;;;;3.85;3.10;;;35.30;22.30;;;;;;5057167;28;20032;-74
2023/05/13 11:55:29;;;;;;;4.70;3.33;;;36.70;29.60;;;;;;5057578;28;20295;-70
2023/05/13 11:57:56;;;;;;;3.13;2.83;;;35.10;1.00;;;;;;5073242;28;20479;-68
2023/05/13 12:00:30;;;;;;;3.75;2.85;;;35.90;1.00;;;;;;5057196;28;20037;-69
2023/05/13 12:03:01;;;;;;;4.82;3.20;;;35.90;1.00;;;;;;5057203;28;20071;-73
2023/05/13 12:05:30;;;;;;;4.80;3.40;;;35.60;1.00;;;;;;5056487;28;20080;-72
2023/05/13 12:07:57;;;;;;;3.50;3.20;;;35.00;1.00;;;;;;5056431;28;20285;-70
2023/05/13 12:10:23;;;;;;;5.03;3.33;;;35.20;1.00;;;;;;5073306;28;20033;-72
2023/05/13 12:12:50;;;;;;;3.20;2.85;;;33.50;1.00;;;;;;5073029;28;20041;-69
2023/05/13 12:15:17;;;;;;;3.90;3.00;;;33.40;1.00;;;;;;5057270;28;20025;-64
2023/05/13 12:17:45;;;;;;;4.43;3.15;;;33.80;1.00;;;;;;5072829;28;20037;-66
2023/05/13 12:20:19;;;;;;;3.28;2.97;;;34.70;1.00;;;;;;5039405;28;20242;-69
2023/05/13 12:22:45;;;;;;;3.38;3.08;;;35.90;1.00;;;;;;5056766;28;20040;-68
2023/05/13 12:25:30;;;;;;;6.25;3.70;;;33.50;1.00;;;;;;5056636;28;20324;-67
2023/05/13 12:27:56;;;;;;;5.30;3.50;;;30.70;1.00;;;;;;5056611;28;20482;-65
2023/05/13 12:30:22;;;;;;;5.70;3.70;;;30.00;1.00;;;;;;5056483;28;20047;-67
2023/05/13 12:32:48;;;;;;;6.07;3.38;;;30.70;1.00;;;;;;5072648;28;20033;-63
2023/05/13 12:35:14;;;;;;;4.22;3.05;;;31.60;1.00;;;;;;5056606;28;20040;-68
2023/05/13 12:37:40;;;;;;;3.80;3.13;;;33.00;1.00;;;;;;5056442;28;20120;-70
2023/05/13 12:40:13;;;;;;;4.60;2.70;;;33.80;1.00;;;;;;5056196;28;20315;-69
2023/05/13 12:42:44;;;;;;;2.83;2.63;;;31.60;1.00;;;;;;5039364;28;20407;-66
2023/05/13 12:45:10;;;;;;;6.70;2.63;;;32.00;1.00;;;;;;5072706;28;20036;-66
2023/05/13 12:47:51;;;;;;;5.38;3.20;;;31.30;1.00;;;;;;5056875;28;20029;-63
2023/05/13 12:50:18;;;;;;;7.00;3.00;;;32.80;1.00;;;;;;5072601;28;20033;-64
2023/05/13 12:52:44;;;;;;;4.15;3.03;;;33.60;1.00;;;;;;5056418;28;20094;-67